Airfield :
LOGIN :

Register | Disclaimer

   EN    FR    IT 

 










Legend :    VFR   Marginal VFR   IFR   Intensive IFR   Very Intensive IFR
Visi :
Ceiling :
>= 8 km
>= 3000ft
5 to 8 km
1000 to 3000 ft
1500m to 5 km
500 to 1000 ft
800 to 1500m
200 to 500 ft
< 800m
< 200 ft
Symbols :   Thunderstorms  Fog  Heavy snow  Heavy precipitations  Wind > 20 kt
SIGMETs :     Misc.  Thunderstorms  Icing  Turbulence  Mountain Waves  Volcanic Ashes






- Airport Elevation : 24 ft
- IATA code : IBZ


LEIB - Ibiza

CURRENT METAR :
  • 101930Z 00000KT 9999 FEW011 14/14 Q1014 NOSIG

EXPIRED METARs :
  • 101900Z 13003KT 9999 FEW011 13/13 Q1013 NOSIG
  • 101830Z 08004KT 9999 FEW011 14/13 Q1013 NOSIG
  • 101800Z 08003KT 9999 FEW011 15/13 Q1013 NOSIG
  • 101730Z 08005KT 050V120 9999 BKN011 16/13 Q1013 NOSIG
  • 101700Z 12003KT 070V170 9999 BKN011 16/14 Q1014 NOSIG

TAF AMD TAF LEIB
Valid from the 10 at 17:00 until the 11 at 15:00 UTC


101706Z 1017/1115 VRB03KT 9999 SCT015 TX18/1112Z TN11/1106Z
TEMPO 1017/1107 3000 BR BKN010
PROB30
TEMPO 1100/1106 0800 BCFG VV001
BECMG 1107/1109 24010KT



MET'MAP, your aeronautical weather chart ! - Copyright ORBIFLY December 2007 - Disclaimer

ORBIFLY MET'MAP TEAM :

Programming & Development : Alexandra Zaïnal
Concept & original design : Baudouin d'Aumeries
Assistance for programming : Marc-Olivier Méhu
Technical & hardware support : Manuel Goepfert

Contact : metmap@orbifly.com




SOURCES & CREDITS :

   NOAA